Terminal Aerodrome Forecast
Issued by NWS Wilmington, OH

Current Version | Previous Version | Text Only | Print | Product List | Glossary Off
Versions: 1 2 3 4 5 6 7 8 9 10 11 12 13 14 15 16 17 18 19 20 21 22 23 24 25 26 27 28

000
FTUS41 KILN 182200 AAB
TAFCMH
TAF AMD
KCMH 182240Z 1823/1918 24012G20KT P6SM BKN025
      TEMPO 1823/1824 4SM -SN
     FM190000 23012KT P6SM OVC035
     FM190900 19008KT P6SM BKN050
     FM191400 19014G22KT P6SM BKN060=

USA.gov is the U.S. government's official web portal to all federal, state and local government web resources and services.